createdAt,value
2022-11-08T00:00:46.017Z,7.78
2022-11-08T00:03:14.357Z,7.77
2022-11-08T00:06:01.349Z,7.78
2022-11-08T00:08:47.838Z,7.77
2022-11-08T00:11:34.695Z,7.75
2022-11-08T00:14:04.043Z,7.73
2022-11-08T00:16:32.317Z,7.72
2022-11-08T00:19:00.623Z,7.70
2022-11-08T00:21:29.277Z,7.72
2022-11-08T00:23:57.437Z,7.72
2022-11-08T00:26:25.712Z,7.71
2022-11-08T00:28:54.167Z,7.69
2022-11-08T00:31:22.430Z,7.66
2022-11-08T00:33:50.875Z,7.65
2022-11-08T00:36:19.850Z,7.66
2022-11-08T00:38:48.484Z,7.65
2022-11-08T00:41:16.693Z,7.65
2022-11-08T00:43:45.579Z,7.65
2022-11-08T00:46:14.728Z,7.64
2022-11-08T00:48:43.668Z,7.64
2022-11-08T00:51:13.669Z,7.65
2022-11-08T00:53:42.813Z,7.66
2022-11-08T00:56:14.395Z,7.65
2022-11-08T00:58:44.736Z,7.63
2022-11-08T01:01:18.998Z,7.57
2022-11-08T01:03:50.014Z,7.50
2022-11-08T01:06:23.605Z,7.44
2022-11-08T01:08:52.483Z,7.37
2022-11-08T01:11:23.947Z,7.34
2022-11-08T01:13:53.464Z,7.25
2022-11-08T01:16:24.701Z,7.15
2022-11-08T01:18:55.155Z,7.10
2022-11-08T01:21:25.795Z,7.06
2022-11-08T01:23:55.401Z,7.03
2022-11-08T01:26:27.646Z,6.99
2022-11-08T01:28:57.689Z,6.95
2022-11-08T01:31:29.635Z,6.90
2022-11-08T01:33:58.946Z,6.86
2022-11-08T01:36:28.765Z,6.85
2022-11-08T01:38:57.902Z,6.85
2022-11-08T01:41:27.529Z,6.85
2022-11-08T01:43:58.189Z,6.83
2022-11-08T01:46:33.962Z,6.82
2022-11-08T01:49:11.422Z,6.83
2022-11-08T01:52:01.615Z,6.83
2022-11-08T01:54:47.269Z,6.85
2022-11-08T01:57:21.218Z,6.86
2022-11-08T01:59:54.687Z,6.86
2022-11-08T02:02:23.668Z,6.88
2022-11-08T02:04:52.228Z,6.89
2022-11-08T02:07:20.658Z,6.93
2022-11-08T02:09:49.708Z,6.94
2022-11-08T02:12:24.098Z,6.95
2022-11-08T02:14:52.921Z,6.97
2022-11-08T02:17:21.365Z,6.98
2022-11-08T02:19:52.133Z,7.01
2022-11-08T02:22:39.505Z,7.03
2022-11-08T02:25:08.027Z,7.04
2022-11-08T02:27:36.259Z,7.06
2022-11-08T02:30:05.075Z,7.09
2022-11-08T02:32:43.720Z,7.11
2022-11-08T02:35:19.670Z,7.13
2022-11-08T02:37:48.898Z,7.15
2022-11-08T02:40:17.059Z,7.17
2022-11-08T02:42:45.446Z,7.17
2022-11-08T02:45:13.769Z,7.14
2022-11-08T02:47:41.943Z,7.12
2022-11-08T02:50:10.637Z,7.10
2022-11-08T02:52:38.875Z,7.08
2022-11-08T02:55:07.484Z,7.02
2022-11-08T02:57:35.810Z,7.00
2022-11-08T03:00:05.128Z,6.98
2022-11-08T03:02:33.523Z,6.96
2022-11-08T03:05:02.013Z,6.95
2022-11-08T03:07:30.253Z,6.96
2022-11-08T03:09:58.478Z,6.96
2022-11-08T03:12:27.239Z,6.96
2022-11-08T03:14:55.459Z,6.98
2022-11-08T03:17:23.779Z,6.99
2022-11-08T03:19:52.084Z,6.98
2022-11-08T03:22:20.423Z,6.98
2022-11-08T03:24:48.631Z,6.98
2022-11-08T03:27:17.407Z,6.99
2022-11-08T03:29:46.107Z,6.99
2022-11-08T03:32:15.631Z,6.99
2022-11-08T03:34:44.061Z,6.98
2022-11-08T03:37:12.784Z,6.97
2022-11-08T03:39:40.949Z,6.97
2022-11-08T03:42:09.635Z,6.96
2022-11-08T03:44:38.160Z,6.95
2022-11-08T03:47:06.415Z,6.95
2022-11-08T03:49:34.574Z,6.93
2022-11-08T03:52:03.522Z,6.91
2022-11-08T03:54:32.880Z,6.90
2022-11-08T03:57:01.610Z,6.88
2022-11-08T03:59:30.447Z,6.85
2022-11-08T04:01:59.223Z,6.81
2022-11-08T04:04:28.154Z,6.78
2022-11-08T04:06:57.076Z,6.75
2022-11-08T04:09:25.706Z,6.72
2022-11-08T04:12:13.154Z,6.71
2022-11-08T04:15:00.797Z,6.70
2022-11-08T04:17:49.247Z,6.70
2022-11-08T04:20:35.950Z,6.69
2022-11-08T04:23:04.952Z,6.71
2022-11-08T04:25:35.269Z,6.69
2022-11-08T04:28:04.570Z,6.66
2022-11-08T04:30:33.703Z,6.65
2022-11-08T04:33:06.315Z,6.63
2022-11-08T04:35:36.190Z,6.62
2022-11-08T04:38:04.872Z,6.58
2022-11-08T04:40:33.920Z,6.55
2022-11-08T04:43:03.042Z,6.51
2022-11-08T04:45:32.006Z,6.45
2022-11-08T04:48:00.828Z,6.40
2022-11-08T04:50:30.118Z,6.35
2022-11-08T04:52:59.117Z,6.30
2022-11-08T04:55:27.960Z,6.25
2022-11-08T04:57:59.896Z,6.21
2022-11-08T05:00:28.686Z,6.18
2022-11-08T05:02:57.458Z,6.17
2022-11-08T05:05:25.796Z,6.13
2022-11-08T05:07:55.811Z,6.11
2022-11-08T05:10:24.073Z,6.11
2022-11-08T05:12:57.988Z,6.11
2022-11-08T05:15:26.324Z,6.11
2022-11-08T05:17:55.034Z,6.10
2022-11-08T05:20:41.751Z,6.08
2022-11-08T05:23:26.790Z,6.05
2022-11-08T05:25:56.466Z,6.00
2022-11-08T05:28:25.395Z,5.95
2022-11-08T05:30:55.190Z,5.92
2022-11-08T05:33:24.045Z,5.90
2022-11-08T05:35:53.039Z,5.86
2022-11-08T05:38:22.016Z,5.83
2022-11-08T05:40:50.820Z,5.80
2022-11-08T05:43:19.643Z,5.76
2022-11-08T05:45:48.897Z,5.73
2022-11-08T05:48:17.554Z,5.70
2022-11-08T05:50:46.474Z,5.67
2022-11-08T05:53:15.302Z,5.64
2022-11-08T05:55:43.928Z,5.61
2022-11-08T05:58:12.762Z,5.60
2022-11-08T06:00:41.984Z,5.57
2022-11-08T06:03:10.921Z,5.55
2022-11-08T06:05:40.054Z,5.53
2022-11-08T06:08:08.939Z,5.52
2022-11-08T06:10:37.391Z,5.50
2022-11-08T06:13:06.317Z,5.50
2022-11-08T06:15:35.075Z,5.49
2022-11-08T06:18:05.724Z,5.48
2022-11-08T06:20:34.697Z,5.49
2022-11-08T06:23:02.970Z,5.49
2022-11-08T06:25:31.462Z,5.49
2022-11-08T06:28:01.817Z,5.48
2022-11-08T06:30:30.484Z,5.47
2022-11-08T06:33:01.769Z,5.46
2022-11-08T06:35:30.292Z,5.46
2022-11-08T06:38:00.685Z,5.45
2022-11-08T06:40:33.376Z,5.45
2022-11-08T06:43:02.354Z,5.43
2022-11-08T06:45:30.691Z,5.42
2022-11-08T06:48:00.696Z,5.41
2022-11-08T06:50:31.179Z,5.41
2022-11-08T06:53:00.499Z,5.42
2022-11-08T06:55:29.539Z,5.43
2022-11-08T06:57:58.237Z,5.44
2022-11-08T07:00:27.964Z,5.44
2022-11-08T07:02:58.900Z,5.44
2022-11-08T07:05:29.145Z,5.45
2022-11-08T07:08:02.394Z,5.46
2022-11-08T07:10:32.685Z,5.46
2022-11-08T07:13:02.541Z,5.45
2022-11-08T07:15:32.468Z,5.44
2022-11-08T07:18:08.189Z,5.45
2022-11-08T07:20:38.151Z,5.46
2022-11-08T07:23:07.779Z,5.47
2022-11-08T07:25:37.242Z,5.48
2022-11-08T07:28:09.015Z,5.48
2022-11-08T07:30:37.779Z,5.49
2022-11-08T07:33:06.176Z,5.49
2022-11-08T07:35:34.820Z,5.50
2022-11-08T07:38:03.128Z,5.52
2022-11-08T07:40:31.828Z,5.54
2022-11-08T07:43:15.723Z,5.57
2022-11-08T07:45:44.347Z,5.61
2022-11-08T07:48:14.894Z,5.61
2022-11-08T07:50:44.418Z,5.63
2022-11-08T07:53:13.100Z,5.63
2022-11-08T07:55:42.480Z,5.65
2022-11-08T07:58:12.610Z,5.65
2022-11-08T08:00:43.069Z,5.67
2022-11-08T08:03:14.380Z,5.68
2022-11-08T08:05:45.628Z,5.66
2022-11-08T08:08:15.467Z,5.66
2022-11-08T08:10:44.077Z,5.66
2022-11-08T08:13:12.610Z,5.66
2022-11-08T08:15:41.429Z,5.66
2022-11-08T08:18:10.810Z,5.64
2022-11-08T08:20:58.167Z,5.65
2022-11-08T08:23:27.039Z,5.65
2022-11-08T08:25:55.833Z,5.67
2022-11-08T08:28:24.702Z,5.67
2022-11-08T08:30:53.330Z,5.68
2022-11-08T08:33:28.282Z,5.67
2022-11-08T08:35:57.749Z,5.68
2022-11-08T08:38:26.216Z,5.69
2022-11-08T08:40:55.341Z,5.67
2022-11-08T08:43:24.582Z,5.67
2022-11-08T08:45:53.045Z,5.67
2022-11-08T08:48:21.893Z,5.68
2022-11-08T08:50:50.203Z,5.68
2022-11-08T08:53:19.173Z,5.68
2022-11-08T08:55:49.626Z,5.68
2022-11-08T08:58:18.281Z,5.67
2022-11-08T09:03:37.056Z,5.71
2022-11-08T09:06:06.363Z,5.72
2022-11-08T09:08:35.005Z,5.73
2022-11-08T09:11:03.927Z,5.73
2022-11-08T09:13:33.411Z,5.73
2022-11-08T09:16:03.960Z,5.71
2022-11-08T09:18:33.952Z,5.69
2022-11-08T09:21:05.301Z,5.66
2022-11-08T09:23:33.830Z,5.65
2022-11-08T09:26:06.345Z,5.61
2022-11-08T09:28:37.009Z,5.56
2022-11-08T09:31:13.834Z,5.53
2022-11-08T09:33:42.986Z,5.50
2022-11-08T09:36:16.456Z,5.46
2022-11-08T09:38:44.779Z,5.44
2022-11-08T09:41:19.045Z,5.42
2022-11-08T09:43:54.156Z,5.39
2022-11-08T09:46:59.458Z,5.37
2022-11-08T09:49:44.488Z,5.34
2022-11-08T09:52:25.051Z,5.32
2022-11-08T09:54:57.853Z,5.32
2022-11-08T09:57:35.494Z,5.32
2022-11-08T10:00:07.484Z,5.31
2022-11-08T10:02:38.195Z,5.30
2022-11-08T10:05:10.917Z,5.28
2022-11-08T10:07:52.225Z,5.25
2022-11-08T10:10:21.009Z,5.24
2022-11-08T10:12:56.549Z,5.23
2022-11-08T10:16:08.754Z,5.21
2022-11-08T10:18:50.566Z,5.17
2022-11-08T10:21:41.859Z,5.15
2022-11-08T10:25:01.135Z,5.14
2022-11-08T10:27:38.019Z,5.14
2022-11-08T10:30:17.543Z,5.14
2022-11-08T10:32:48.873Z,5.13
2022-11-08T10:35:20.547Z,5.13
2022-11-08T10:37:53.057Z,5.12
2022-11-08T10:40:40.096Z,5.11
2022-11-08T10:43:39.167Z,5.12
2022-11-08T10:46:33.420Z,5.12
2022-11-08T10:49:13.467Z,5.10
2022-11-08T10:51:42.142Z,5.10
2022-11-08T10:54:30.371Z,5.11
2022-11-08T10:56:59.238Z,5.13
2022-11-08T10:59:32.144Z,5.14
2022-11-08T11:02:01.432Z,5.12
2022-11-08T11:04:33.492Z,5.12
2022-11-08T11:07:33.999Z,5.12
2022-11-08T11:10:24.531Z,5.13
2022-11-08T11:13:05.298Z,5.11
2022-11-08T11:15:38.693Z,5.10
2022-11-08T11:18:25.086Z,5.11
2022-11-08T11:21:22.909Z,5.12
2022-11-08T11:23:52.776Z,5.14
2022-11-08T11:26:49.312Z,5.16
2022-11-08T11:29:25.073Z,5.18
2022-11-08T11:31:54.890Z,5.18
2022-11-08T11:34:44.404Z,5.18
2022-11-08T11:37:12.644Z,5.20
2022-11-08T11:40:01.627Z,5.22
2022-11-08T11:43:03.485Z,5.24
2022-11-08T11:45:57.012Z,5.26
2022-11-08T11:48:31.167Z,5.26
2022-11-08T11:51:00.407Z,5.25
2022-11-08T11:53:34.095Z,5.25
2022-11-08T11:56:24.316Z,5.23
2022-11-08T11:59:17.664Z,5.23
2022-11-08T12:02:18.703Z,5.19
2022-11-08T12:05:11.734Z,5.14
2022-11-08T12:07:48.003Z,5.12
2022-11-08T12:10:54.716Z,5.08
2022-11-08T12:13:29.501Z,5.05
2022-11-08T12:16:20.324Z,5.02
2022-11-08T12:19:10.811Z,5.00
2022-11-08T12:21:57.955Z,4.99
2022-11-08T12:24:37.886Z,4.99
2022-11-08T12:27:21.111Z,4.98
2022-11-08T12:30:05.163Z,4.97
2022-11-08T12:32:36.469Z,4.97
2022-11-08T12:35:30.698Z,4.96
2022-11-08T12:38:10.987Z,4.95
2022-11-08T12:41:05.912Z,4.95
2022-11-08T12:43:50.173Z,4.95
2022-11-08T12:46:20.131Z,4.92
2022-11-08T12:48:51.067Z,4.91
2022-11-08T12:51:31.736Z,4.89
2022-11-08T12:54:15.867Z,4.86
2022-11-08T12:56:49.898Z,4.85
2022-11-08T12:59:21.117Z,4.85
2022-11-08T13:01:50.356Z,4.85
2022-11-08T13:04:45.267Z,4.85
2022-11-08T13:07:38.089Z,4.84
2022-11-08T13:10:29.583Z,4.85
2022-11-08T13:13:22.032Z,4.85
2022-11-08T13:16:41.604Z,4.84
2022-11-08T13:19:39.487Z,4.83
2022-11-08T13:22:30.554Z,4.84
2022-11-08T13:25:05.809Z,4.84
2022-11-08T13:27:49.292Z,4.85
2022-11-08T13:30:17.933Z,4.86
2022-11-08T13:32:55.371Z,4.86
2022-11-08T13:36:10.491Z,4.87
2022-11-08T13:39:22.501Z,4.88
2022-11-08T13:42:05.819Z,4.89
2022-11-08T13:44:56.488Z,4.93
2022-11-08T13:47:34.245Z,4.95
2022-11-08T13:50:30.688Z,4.95
2022-11-08T13:53:20.307Z,4.98
2022-11-08T13:55:48.986Z,4.97
2022-11-08T13:58:37.006Z,4.95
2022-11-08T14:01:20.771Z,4.91
2022-11-08T14:03:49.699Z,4.89
2022-11-08T14:06:47.044Z,4.85
2022-11-08T14:09:22.030Z,4.80
2022-11-08T14:11:56.107Z,4.76
2022-11-08T14:14:27.754Z,4.72
2022-11-08T14:17:11.139Z,4.68
2022-11-08T14:19:41.858Z,4.63
2022-11-08T14:22:21.652Z,4.62
2022-11-08T14:24:52.355Z,4.60
2022-11-08T14:27:40.309Z,4.57
2022-11-08T14:30:24.471Z,4.55
2022-11-08T14:33:14.415Z,4.53
2022-11-08T14:35:43.359Z,4.51
2022-11-08T14:38:16.158Z,4.48
2022-11-08T14:40:54.463Z,4.45
2022-11-08T14:43:24.002Z,4.42
2022-11-08T14:45:53.503Z,4.40
2022-11-08T14:48:32.678Z,4.37
2022-11-08T14:51:07.215Z,4.35
2022-11-08T14:53:46.935Z,4.31
2022-11-08T14:56:20.028Z,4.28
2022-11-08T14:58:50.455Z,4.24
2022-11-08T15:01:24.294Z,4.21
2022-11-08T15:04:03.807Z,4.20
2022-11-08T15:06:44.160Z,4.20
2022-11-08T15:09:34.696Z,4.18
2022-11-08T15:12:15.115Z,4.16
2022-11-08T15:14:58.606Z,4.15
2022-11-08T15:17:35.588Z,4.17
2022-11-08T15:20:05.511Z,4.19
2022-11-08T15:22:36.073Z,4.21
2022-11-08T15:25:37.018Z,4.22
2022-11-08T15:28:17.722Z,4.21
2022-11-08T15:30:47.671Z,4.20
2022-11-08T15:33:38.027Z,4.19
2022-11-08T15:36:15.410Z,4.18
2022-11-08T15:38:48.801Z,4.16
2022-11-08T15:41:36.491Z,4.15
2022-11-08T15:44:25.435Z,4.13
2022-11-08T15:46:55.731Z,4.10
2022-11-08T15:49:30.495Z,4.07
2022-11-08T15:52:01.594Z,4.06
2022-11-08T15:54:29.979Z,4.07
2022-11-08T15:56:58.573Z,4.08
2022-11-08T15:59:30.895Z,4.09
2022-11-08T16:02:04.573Z,4.11
2022-11-08T16:04:33.167Z,4.14
2022-11-08T16:07:02.194Z,4.16
2022-11-08T16:09:30.826Z,4.17
2022-11-08T16:11:59.610Z,4.18
2022-11-08T16:14:28.134Z,4.20
2022-11-08T16:16:56.781Z,4.23
2022-11-08T16:19:27.071Z,4.24
2022-11-08T16:21:55.807Z,4.26
2022-11-08T16:24:24.948Z,4.26
2022-11-08T16:26:53.773Z,4.27
2022-11-08T16:29:25.430Z,4.28
2022-11-08T16:31:54.281Z,4.29
2022-11-08T16:34:23.315Z,4.30
2022-11-08T16:36:53.035Z,4.31
2022-11-08T16:39:27.149Z,4.32
2022-11-08T16:41:55.852Z,4.33
2022-11-08T16:44:24.440Z,4.35
2022-11-08T16:46:55.030Z,4.36
2022-11-08T16:49:25.585Z,4.37
2022-11-08T16:51:54.271Z,4.37
2022-11-08T16:54:29.408Z,4.37
2022-11-08T16:57:20.650Z,4.38
2022-11-08T16:59:47.067Z,4.41
2022-11-08T17:02:23.014Z,4.43
2022-11-08T17:04:51.717Z,4.45
2022-11-08T17:07:20.503Z,4.45
2022-11-08T17:09:49.073Z,4.46
2022-11-08T17:12:18.210Z,4.46
2022-11-08T17:14:47.403Z,4.46
2022-11-08T17:17:17.247Z,4.48
2022-11-08T17:19:45.943Z,4.49
2022-11-08T17:22:14.681Z,4.51
2022-11-08T17:24:43.306Z,4.54
2022-11-08T17:27:12.556Z,4.55
2022-11-08T17:29:41.059Z,4.55
2022-11-08T17:32:09.281Z,4.57
2022-11-08T17:34:37.882Z,4.59
2022-11-08T17:37:06.097Z,4.61
2022-11-08T17:39:35.193Z,4.62
2022-11-08T17:42:04.167Z,4.64
2022-11-08T17:44:32.923Z,4.67
2022-11-08T17:47:01.741Z,4.69
2022-11-08T17:49:30.050Z,4.69
2022-11-08T17:51:58.896Z,4.70
2022-11-08T17:54:27.623Z,4.73
2022-11-08T17:56:56.448Z,4.76
2022-11-08T17:59:25.186Z,4.77
2022-11-08T18:01:53.988Z,4.79
2022-11-08T18:04:23.040Z,4.81
2022-11-08T18:06:51.990Z,4.84
2022-11-08T18:09:21.291Z,4.87
2022-11-08T18:11:50.646Z,4.89
2022-11-08T18:14:25.511Z,4.90
2022-11-08T18:16:57.902Z,4.92
2022-11-08T18:19:26.503Z,4.96
2022-11-08T18:21:55.364Z,4.98
2022-11-08T18:24:23.980Z,5.00
2022-11-08T18:26:52.808Z,5.03
2022-11-08T18:29:21.638Z,5.06
2022-11-08T18:31:50.456Z,5.09
2022-11-08T18:34:19.224Z,5.09
2022-11-08T18:36:50.096Z,5.10
2022-11-08T18:39:20.014Z,5.10
2022-11-08T18:41:48.380Z,5.12
2022-11-08T18:44:17.249Z,5.14
2022-11-08T18:46:46.343Z,5.17
2022-11-08T18:49:15.385Z,5.19
2022-11-08T18:51:44.084Z,5.20
2022-11-08T18:54:12.588Z,5.22
2022-11-08T18:56:41.389Z,5.23
2022-11-08T18:59:10.147Z,5.22
2022-11-08T19:01:39.267Z,5.21
2022-11-08T19:04:08.308Z,5.20
2022-11-08T19:06:37.185Z,5.19
2022-11-08T19:09:06.234Z,5.18
2022-11-08T19:11:35.064Z,5.17
2022-11-08T19:14:03.852Z,5.17
2022-11-08T19:16:32.463Z,5.18
2022-11-08T19:19:01.598Z,5.19
2022-11-08T19:21:30.282Z,5.21
2022-11-08T19:24:00.873Z,5.21
2022-11-08T19:26:30.760Z,5.20
2022-11-08T19:28:59.480Z,5.21
2022-11-08T19:31:28.166Z,5.20
2022-11-08T19:33:56.956Z,5.22
2022-11-08T19:36:28.120Z,5.21
2022-11-08T19:38:58.859Z,5.23
2022-11-08T19:41:30.513Z,5.25
2022-11-08T19:43:59.371Z,5.26
2022-11-08T19:46:31.244Z,5.26
2022-11-08T19:49:03.113Z,5.27
2022-11-08T19:51:36.605Z,5.28
2022-11-08T19:54:08.277Z,5.28
2022-11-08T19:59:26.936Z,5.29
2022-11-08T20:01:55.837Z,5.30
2022-11-08T20:04:24.477Z,5.31
2022-11-08T20:06:52.880Z,5.35
2022-11-08T20:09:25.940Z,5.39
2022-11-08T20:11:57.841Z,5.44
2022-11-08T20:14:26.789Z,5.47
2022-11-08T20:16:56.510Z,5.50
2022-11-08T20:19:25.297Z,5.51
2022-11-08T20:21:58.208Z,5.52
2022-11-08T20:24:27.001Z,5.52
2022-11-08T20:26:56.543Z,5.53
2022-11-08T20:29:25.073Z,5.56
2022-11-08T20:31:54.677Z,5.58
2022-11-08T20:34:23.633Z,5.60
2022-11-08T20:36:52.445Z,5.58
2022-11-08T20:39:21.086Z,5.58
2022-11-08T20:41:50.053Z,5.57
2022-11-08T20:44:18.567Z,5.57
2022-11-08T20:46:47.488Z,5.57
2022-11-08T20:49:16.232Z,5.60
2022-11-08T20:51:44.929Z,5.62
2022-11-08T20:54:13.919Z,5.65
2022-11-08T20:56:42.585Z,5.68
2022-11-08T20:59:11.949Z,5.73
2022-11-08T21:01:40.432Z,5.76
2022-11-08T21:04:09.841Z,5.78
2022-11-08T21:06:38.877Z,5.82
2022-11-08T21:09:34.283Z,5.86
2022-11-08T21:11:58.450Z,5.91
2022-11-08T21:14:27.292Z,5.97
2022-11-08T21:19:44.761Z,6.11
2022-11-08T21:22:19.083Z,6.16
2022-11-08T21:24:49.706Z,6.19
2022-11-08T21:27:18.573Z,6.21
2022-11-08T21:29:51.536Z,6.21
2022-11-08T21:32:20.175Z,6.23
2022-11-08T21:34:48.771Z,6.25
2022-11-08T21:37:17.468Z,6.27
2022-11-08T21:39:46.113Z,6.30
2022-11-08T21:42:14.929Z,6.32
2022-11-08T21:44:43.758Z,6.34
2022-11-08T21:47:12.910Z,6.35
2022-11-08T21:49:41.853Z,6.37
2022-11-08T21:52:10.797Z,6.38
2022-11-08T21:54:40.203Z,6.40
2022-11-08T21:57:08.576Z,6.42
2022-11-08T21:59:37.190Z,6.45
2022-11-08T22:02:06.149Z,6.48
2022-11-08T22:04:34.990Z,6.51
2022-11-08T22:07:03.669Z,6.53
2022-11-08T22:09:32.425Z,6.56
2022-11-08T22:12:01.652Z,6.58
2022-11-08T22:14:32.333Z,6.59
2022-11-08T22:17:01.044Z,6.60
2022-11-08T22:19:29.914Z,6.61
2022-11-08T22:21:58.809Z,6.63
2022-11-08T22:24:30.294Z,6.64
2022-11-08T22:26:58.886Z,6.66
2022-11-08T22:29:27.771Z,6.68
2022-11-08T22:31:56.504Z,6.70
2022-11-08T22:34:25.487Z,6.72
2022-11-08T22:36:54.198Z,6.76
2022-11-08T22:39:24.980Z,6.80
2022-11-08T22:41:57.052Z,6.83
2022-11-08T22:44:25.383Z,6.86
2022-11-08T22:46:53.624Z,6.92
2022-11-08T22:49:22.359Z,6.97
2022-11-08T22:51:50.596Z,7.04
2022-11-08T22:54:18.766Z,7.08
2022-11-08T22:56:47.765Z,7.13
2022-11-08T22:59:16.471Z,7.18
2022-11-08T23:01:45.097Z,7.22
2022-11-08T23:04:14.110Z,7.24
2022-11-08T23:06:42.749Z,7.26
2022-11-08T23:09:11.786Z,7.27
2022-11-08T23:12:02.302Z,7.24
2022-11-08T23:14:49.111Z,7.25
2022-11-08T23:17:17.905Z,7.24
2022-11-08T23:20:04.911Z,7.24
2022-11-08T23:22:52.027Z,7.24
2022-11-08T23:25:20.673Z,7.21
2022-11-08T23:28:07.140Z,7.17
2022-11-08T23:30:53.656Z,7.12
2022-11-08T23:33:22.386Z,7.08
2022-11-08T23:36:17.040Z,7.05
2022-11-08T23:38:45.882Z,7.02
2022-11-08T23:41:32.922Z,7.00
2022-11-08T23:44:20.466Z,6.98
2022-11-08T23:46:49.146Z,6.95
2022-11-08T23:49:17.818Z,6.93
2022-11-08T23:51:46.628Z,6.90
2022-11-08T23:54:15.140Z,6.87
2022-11-08T23:56:44.274Z,6.84
2022-11-08T23:59:14.233Z,6.82
